sensor_id;sensor_type;location;lat;lon;timestamp;pressure;altitude;pressure_sealevel;temperature;humidity
67099;BME280;54288;53.046;5.668;2023-07-09T00:00:49;101824.38;;;22.56;82.99
67099;BME280;54288;53.046;5.668;2023-07-09T00:03:16;101822.81;;;22.52;83.28
67099;BME280;54288;53.046;5.668;2023-07-09T00:05:42;101821.16;;;22.49;84.29
67099;BME280;54288;53.046;5.668;2023-07-09T00:08:29;101825.94;;;22.43;83.25
67099;BME280;54288;53.046;5.668;2023-07-09T00:10:57;101809.78;;;22.46;82.22
67099;BME280;54288;53.046;5.668;2023-07-09T00:13:25;101817.72;;;22.47;81.57
67099;BME280;54288;53.046;5.668;2023-07-09T00:16:00;101815.97;;;22.46;80.71
67099;BME280;54288;53.046;5.668;2023-07-09T00:18:26;101818.56;;;22.48;80.00
67099;BME280;54288;53.046;5.668;2023-07-09T00:20:52;101813.41;;;22.45;80.07
67099;BME280;54288;53.046;5.668;2023-07-09T00:23:18;101817.81;;;22.46;79.91
67099;BME280;54288;53.046;5.668;2023-07-09T00:25:46;101826.44;;;22.51;79.67
67099;BME280;54288;53.046;5.668;2023-07-09T00:28:16;101821.84;;;22.53;79.21
67099;BME280;54288;53.046;5.668;2023-07-09T00:30:44;101815.56;;;22.54;78.74
67099;BME280;54288;53.046;5.668;2023-07-09T00:33:11;101812.91;;;22.54;78.22
67099;BME280;54288;53.046;5.668;2023-07-09T00:35:44;101810.16;;;22.55;78.04
67099;BME280;54288;53.046;5.668;2023-07-09T00:38:22;101812.91;;;22.54;77.22
67099;BME280;54288;53.046;5.668;2023-07-09T00:41:04;101811.34;;;22.50;77.18
67099;BME280;54288;53.046;5.668;2023-07-09T00:43:34;101814.19;;;22.47;77.49
67099;BME280;54288;53.046;5.668;2023-07-09T00:49:04;101815.97;;;22.46;76.08
67099;BME280;54288;53.046;5.668;2023-07-09T00:51:35;101813.22;;;22.48;75.17
67099;BME280;54288;53.046;5.668;2023-07-09T00:54:13;101817.88;;;22.44;75.38
67099;BME280;54288;53.046;5.668;2023-07-09T00:56:44;101817.16;;;22.41;75.81
67099;BME280;54288;53.046;5.668;2023-07-09T00:59:15;101816.44;;;22.37;75.88
67099;BME280;54288;53.046;5.668;2023-07-09T01:01:44;101815.56;;;22.37;75.07
67099;BME280;54288;53.046;5.668;2023-07-09T01:04:13;101822.47;;;22.41;74.94
67099;BME280;54288;53.046;5.668;2023-07-09T01:06:44;101822.38;;;22.44;74.00
67099;BME280;54288;53.046;5.668;2023-07-09T01:09:11;101820.47;;;22.46;73.27
67099;BME280;54288;53.046;5.668;2023-07-09T01:11:37;101806.72;;;22.53;71.88
67099;BME280;54288;53.046;5.668;2023-07-09T01:14:09;101811.63;;;22.61;71.70
67099;BME280;54288;53.046;5.668;2023-07-09T01:16:39;101813.44;;;22.60;71.68
67099;BME280;54288;53.046;5.668;2023-07-09T01:19:06;101816.03;;;22.62;71.72
67099;BME280;54288;53.046;5.668;2023-07-09T01:21:32;101818.84;;;22.59;71.96
67099;BME280;54288;53.046;5.668;2023-07-09T01:24:09;101816.25;;;22.57;72.05
67099;BME280;54288;53.046;5.668;2023-07-09T01:26:37;101817.38;;;22.53;72.45
67099;BME280;54288;53.046;5.668;2023-07-09T01:29:04;101820.13;;;22.52;72.32
67099;BME280;54288;53.046;5.668;2023-07-09T01:31:30;101809.78;;;22.46;72.85
67099;BME280;54288;53.046;5.668;2023-07-09T01:33:55;101802.09;;;22.40;72.81
67099;BME280;54288;53.046;5.668;2023-07-09T01:36:22;101808.38;;;22.39;73.51
67099;BME280;54288;53.046;5.668;2023-07-09T01:38:52;101812.28;;;22.32;73.86
67099;BME280;54288;53.046;5.668;2023-07-09T01:41:21;101805.31;;;22.29;74.13
67099;BME280;54288;53.046;5.668;2023-07-09T01:43:47;101810.56;;;22.31;73.96
67099;BME280;54288;53.046;5.668;2023-07-09T01:46:14;101814.38;;;22.27;74.39
67099;BME280;54288;53.046;5.668;2023-07-09T01:48:40;101805.75;;;22.22;74.29
67099;BME280;54288;53.046;5.668;2023-07-09T01:51:14;101811.06;;;22.22;74.79
67099;BME280;54288;53.046;5.668;2023-07-09T01:53:43;101813.28;;;22.14;75.48
67099;BME280;54288;53.046;5.668;2023-07-09T01:56:10;101817.97;;;22.09;76.00
67099;BME280;54288;53.046;5.668;2023-07-09T01:58:37;101826.31;;;22.03;76.48
67099;BME280;54288;53.046;5.668;2023-07-09T02:01:08;101817.69;;;21.98;77.30
67099;BME280;54288;53.046;5.668;2023-07-09T02:03:34;101820.59;;;21.93;77.36
67099;BME280;54288;53.046;5.668;2023-07-09T02:06:00;101827.81;;;21.91;77.87
67099;BME280;54288;53.046;5.668;2023-07-09T02:08:28;101825.41;;;21.87;78.33
67099;BME280;54288;53.046;5.668;2023-07-09T02:10:54;101828.44;;;21.79;79.35
67099;BME280;54288;53.046;5.668;2023-07-09T02:13:19;101821.47;;;21.77;79.06
67099;BME280;54288;53.046;5.668;2023-07-09T02:15:45;101815.34;;;21.75;79.18
67099;BME280;54288;53.046;5.668;2023-07-09T02:18:12;101831.34;;;21.75;79.17
67099;BME280;54288;53.046;5.668;2023-07-09T02:20:38;101825.41;;;21.70;79.24
67099;BME280;54288;53.046;5.668;2023-07-09T02:23:07;101827.41;;;21.65;79.93
67099;BME280;54288;53.046;5.668;2023-07-09T02:25:33;101831.28;;;21.58;80.36
67099;BME280;54288;53.046;5.668;2023-07-09T02:27:59;101833.34;;;21.53;81.08
67099;BME280;54288;53.046;5.668;2023-07-09T02:30:25;101829.03;;;21.50;81.08
67099;BME280;54288;53.046;5.668;2023-07-09T02:32:51;101830.09;;;21.46;81.59
67099;BME280;54288;53.046;5.668;2023-07-09T02:35:20;101840.06;;;21.43;81.82
67099;BME280;54288;53.046;5.668;2023-07-09T02:37:46;101825.09;;;21.40;81.87
67099;BME280;54288;53.046;5.668;2023-07-09T02:40:13;101822.66;;;21.36;81.96
67099;BME280;54288;53.046;5.668;2023-07-09T02:42:39;101820.91;;;21.35;82.02
67099;BME280;54288;53.046;5.668;2023-07-09T02:45:05;101819.34;;;21.31;82.60
67099;BME280;54288;53.046;5.668;2023-07-09T02:47:32;101822.16;;;21.28;82.85
67099;BME280;54288;53.046;5.668;2023-07-09T02:49:59;101829.31;;;21.27;83.04
67099;BME280;54288;53.046;5.668;2023-07-09T02:52:25;101824.81;;;21.28;82.79
67099;BME280;54288;53.046;5.668;2023-07-09T02:54:52;101824.09;;;21.24;83.07
67099;BME280;54288;53.046;5.668;2023-07-09T02:57:18;101812.88;;;21.18;83.30
67099;BME280;54288;53.046;5.668;2023-07-09T02:59:44;101820.78;;;21.19;83.75
67099;BME280;54288;53.046;5.668;2023-07-09T03:02:10;101814.75;;;21.16;84.00
67099;BME280;54288;53.046;5.668;2023-07-09T03:04:36;101812.88;;;21.18;83.49
67099;BME280;54288;53.046;5.668;2023-07-09T03:07:02;101803.97;;;21.19;83.70
67099;BME280;54288;53.046;5.668;2023-07-09T03:09:28;101810.94;;;21.21;83.32
67099;BME280;54288;53.046;5.668;2023-07-09T03:11:54;101809.13;;;21.22;83.42
67099;BME280;54288;53.046;5.668;2023-07-09T03:14:20;101815.34;;;21.22;83.13
67099;BME280;54288;53.046;5.668;2023-07-09T03:16:45;101811.78;;;21.22;83.05
67099;BME280;54288;53.046;5.668;2023-07-09T03:19:12;101811.00;;;21.20;82.97
67099;BME280;54288;53.046;5.668;2023-07-09T03:21:38;101808.34;;;21.20;83.23
67099;BME280;54288;53.046;5.668;2023-07-09T03:24:04;101819.94;;;21.19;83.51
67099;BME280;54288;53.046;5.668;2023-07-09T03:26:30;101818.38;;;21.15;83.83
67099;BME280;54288;53.046;5.668;2023-07-09T03:28:56;101825.47;;;21.14;83.50
67099;BME280;54288;53.046;5.668;2023-07-09T03:31:22;101816.34;;;21.20;83.27
67099;BME280;54288;53.046;5.668;2023-07-09T03:33:50;101831.16;;;21.25;82.34
67099;BME280;54288;53.046;5.668;2023-07-09T03:36:15;101824.81;;;21.28;82.69
67099;BME280;54288;53.046;5.668;2023-07-09T03:38:41;101842.38;;;21.32;82.39
67099;BME280;54288;53.046;5.668;2023-07-09T03:41:07;101842.22;;;21.35;82.31
67099;BME280;54288;53.046;5.668;2023-07-09T03:43:33;101836.88;;;21.35;82.38
67099;BME280;54288;53.046;5.668;2023-07-09T03:45:58;101830.66;;;21.36;82.59
67099;BME280;54288;53.046;5.668;2023-07-09T03:48:24;101831.56;;;21.35;82.74
67099;BME280;54288;53.046;5.668;2023-07-09T03:50:50;101829.84;;;21.34;83.10
67099;BME280;54288;53.046;5.668;2023-07-09T03:53:16;101838.78;;;21.33;83.43
67099;BME280;54288;53.046;5.668;2023-07-09T03:55:45;101824.50;;;21.34;83.60
67099;BME280;54288;53.046;5.668;2023-07-09T03:58:12;101822.78;;;21.33;83.58
67099;BME280;54288;53.046;5.668;2023-07-09T04:00:37;101836.19;;;21.31;83.65
67099;BME280;54288;53.046;5.668;2023-07-09T04:03:03;101830.06;;;21.29;83.83
67099;BME280;54288;53.046;5.668;2023-07-09T04:05:29;101828.13;;;21.33;83.75
67099;BME280;54288;53.046;5.668;2023-07-09T04:07:55;101830.47;;;21.39;84.06
67099;BME280;54288;53.046;5.668;2023-07-09T04:10:21;101826.94;;;21.38;83.95
67099;BME280;54288;53.046;5.668;2023-07-09T04:12:47;101826.88;;;21.40;84.23
67099;BME280;54288;53.046;5.668;2023-07-09T04:15:13;101830.25;;;21.43;84.22
67099;BME280;54288;53.046;5.668;2023-07-09T04:17:40;101830.09;;;21.46;84.89
67099;BME280;54288;53.046;5.668;2023-07-09T04:20:08;101832.72;;;21.48;85.31
67099;BME280;54288;53.046;5.668;2023-07-09T04:22:37;101832.78;;;21.46;85.93
67099;BME280;54288;53.046;5.668;2023-07-09T04:25:06;101820.28;;;21.47;85.46
67099;BME280;54288;53.046;5.668;2023-07-09T04:27:32;101828.94;;;21.52;85.30
67099;BME280;54288;53.046;5.668;2023-07-09T04:29:59;101836.47;;;21.61;85.31
67099;BME280;54288;53.046;5.668;2023-07-09T04:32:25;101841.47;;;21.68;85.92
67099;BME280;54288;53.046;5.668;2023-07-09T04:34:51;101835.19;;;21.69;85.51
67099;BME280;54288;53.046;5.668;2023-07-09T04:37:17;101838.56;;;21.73;85.02
67099;BME280;54288;53.046;5.668;2023-07-09T04:39:43;101835.66;;;21.77;85.63
67099;BME280;54288;53.046;5.668;2023-07-09T04:42:12;101839.81;;;21.83;85.54
67099;BME280;54288;53.046;5.668;2023-07-09T04:44:38;101836.91;;;21.87;85.86
67099;BME280;54288;53.046;5.668;2023-07-09T04:47:04;101843.66;;;21.94;85.27
67099;BME280;54288;53.046;5.668;2023-07-09T04:49:30;101845.22;;;21.98;84.72
67099;BME280;54288;53.046;5.668;2023-07-09T04:51:55;101852.66;;;22.09;84.63
67099;BME280;54288;53.046;5.668;2023-07-09T04:54:25;101846.16;;;22.14;84.53
67099;BME280;54288;53.046;5.668;2023-07-09T04:56:51;101836.00;;;22.21;83.71
67099;BME280;54288;53.046;5.668;2023-07-09T04:59:19;101839.22;;;22.27;83.74
67099;BME280;54288;53.046;5.668;2023-07-09T05:01:45;101836.41;;;22.30;83.89
67099;BME280;54288;53.046;5.668;2023-07-09T05:04:11;101844.16;;;22.35;83.80
67099;BME280;54288;53.046;5.668;2023-07-09T05:06:37;101848.31;;;22.40;83.21
67099;BME280;54288;53.046;5.668;2023-07-09T05:09:03;101844.31;;;22.49;83.50
67099;BME280;54288;53.046;5.668;2023-07-09T05:11:33;101850.06;;;22.58;82.85
67099;BME280;54288;53.046;5.668;2023-07-09T05:13:59;101853.50;;;22.60;82.67
67099;BME280;54288;53.046;5.668;2023-07-09T05:16:24;101857.88;;;22.61;82.98
67099;BME280;54288;53.046;5.668;2023-07-09T05:18:50;101861.09;;;22.68;82.92
67099;BME280;54288;53.046;5.668;2023-07-09T05:21:16;101861.53;;;22.76;83.17
67099;BME280;54288;53.046;5.668;2023-07-09T05:23:41;101862.91;;;22.83;82.57
67099;BME280;54288;53.046;5.668;2023-07-09T05:26:09;101860.41;;;22.80;83.33
67099;BME280;54288;53.046;5.668;2023-07-09T05:28:35;101858.59;;;22.80;83.34
67099;BME280;54288;53.046;5.668;2023-07-09T05:31:00;101864.41;;;22.88;83.36
67099;BME280;54288;53.046;5.668;2023-07-09T05:33:26;101861.91;;;23.01;82.95
67099;BME280;54288;53.046;5.668;2023-07-09T05:35:52;101860.28;;;23.14;82.55
67099;BME280;54288;53.046;5.668;2023-07-09T05:38:18;101858.94;;;23.22;82.83
67099;BME280;54288;53.046;5.668;2023-07-09T05:40:43;101867.97;;;23.35;81.81
67099;BME280;54288;53.046;5.668;2023-07-09T05:43:10;101863.56;;;23.50;82.05
67099;BME280;54288;53.046;5.668;2023-07-09T05:45:38;101866.31;;;24.09;78.70
67099;BME280;54288;53.046;5.668;2023-07-09T05:48:04;101857.41;;;24.66;75.72
67099;BME280;54288;53.046;5.668;2023-07-09T05:50:33;101866.56;;;24.76;75.42
67099;BME280;54288;53.046;5.668;2023-07-09T05:52:59;101869.16;;;25.46;72.37
67099;BME280;54288;53.046;5.668;2023-07-09T05:55:25;101871.13;;;25.30;72.10
67099;BME280;54288;53.046;5.668;2023-07-09T05:57:52;101867.19;;;25.21;72.90
67099;BME280;54288;53.046;5.668;2023-07-09T06:00:18;101877.47;;;25.55;72.13
67099;BME280;54288;53.046;5.668;2023-07-09T06:02:44;101870.97;;;25.45;72.27
67099;BME280;54288;53.046;5.668;2023-07-09T06:05:10;101873.34;;;25.50;72.32
67099;BME280;54288;53.046;5.668;2023-07-09T06:07:37;101863.31;;;25.66;71.39
67099;BME280;54288;53.046;5.668;2023-07-09T06:10:07;101873.50;;;25.61;73.74
67099;BME280;54288;53.046;5.668;2023-07-09T06:12:33;101878.59;;;25.78;71.78
67099;BME280;54288;53.046;5.668;2023-07-09T06:14:59;101889.66;;;26.00;71.68
67099;BME280;54288;53.046;5.668;2023-07-09T06:17:25;101880.44;;;26.04;72.77
67099;BME280;54288;53.046;5.668;2023-07-09T06:19:51;101888.13;;;26.85;69.00
67099;BME280;54288;53.046;5.668;2023-07-09T06:22:16;101891.88;;;26.95;70.21
67099;BME280;54288;53.046;5.668;2023-07-09T06:24:42;101880.44;;;27.99;66.03
67099;BME280;54288;53.046;5.668;2023-07-09T06:27:09;101879.25;;;28.14;63.36
67099;BME280;54288;53.046;5.668;2023-07-09T06:29:35;101890.31;;;28.22;61.90
67099;BME280;54288;53.046;5.668;2023-07-09T06:32:00;101883.75;;;28.03;63.22
67099;BME280;54288;53.046;5.668;2023-07-09T06:34:26;101895.41;;;27.80;64.42
67099;BME280;54288;53.046;5.668;2023-07-09T06:36:52;101895.06;;;27.25;66.29
67099;BME280;54288;53.046;5.668;2023-07-09T06:39:18;101907.41;;;27.15;68.23
67099;BME280;54288;53.046;5.668;2023-07-09T06:41:45;101898.19;;;27.19;68.75
67099;BME280;54288;53.046;5.668;2023-07-09T06:44:30;101905.78;;;27.37;68.48
67099;BME280;54288;53.046;5.668;2023-07-09T06:46:56;101914.66;;;27.14;69.11
67099;BME280;54288;53.046;5.668;2023-07-09T06:49:22;101909.97;;;26.80;70.94
67099;BME280;54288;53.046;5.668;2023-07-09T06:51:47;101910.38;;;26.87;72.60
67099;BME280;54288;53.046;5.668;2023-07-09T06:54:13;101911.00;;;27.03;71.30
67099;BME280;54288;53.046;5.668;2023-07-09T06:56:41;101915.81;;;27.59;69.61
67099;BME280;54288;53.046;5.668;2023-07-09T06:59:07;101918.56;;;27.82;68.60
67099;BME280;54288;53.046;5.668;2023-07-09T07:01:32;101918.78;;;28.03;66.07
67099;BME280;54288;53.046;5.668;2023-07-09T07:03:58;101922.28;;;28.27;65.63
67099;BME280;54288;53.046;5.668;2023-07-09T07:06:24;101921.97;;;28.42;65.45
67099;BME280;54288;53.046;5.668;2023-07-09T07:08:50;101927.09;;;29.02;64.52
67099;BME280;54288;53.046;5.668;2023-07-09T07:11:15;101927.81;;;29.26;64.42
67099;BME280;54288;53.046;5.668;2023-07-09T07:13:44;101918.13;;;29.34;62.16
67099;BME280;54288;53.046;5.668;2023-07-09T07:16:12;101933.69;;;29.53;64.57
67099;BME280;54288;53.046;5.668;2023-07-09T07:18:39;101929.56;;;29.27;64.15
67099;BME280;54288;53.046;5.668;2023-07-09T07:21:05;101934.47;;;29.00;67.50
67099;BME280;54288;53.046;5.668;2023-07-09T07:23:31;101930.16;;;28.86;67.06
67099;BME280;54288;53.046;5.668;2023-07-09T07:25:57;101936.44;;;28.98;65.78
67099;BME280;54288;53.046;5.668;2023-07-09T07:28:23;101941.59;;;29.01;65.59
67099;BME280;54288;53.046;5.668;2023-07-09T07:30:59;101940.31;;;28.94;66.12
67099;BME280;54288;53.046;5.668;2023-07-09T07:33:26;101950.34;;;28.92;63.67
67099;BME280;54288;53.046;5.668;2023-07-09T07:35:52;101954.28;;;28.66;63.70
67099;BME280;54288;53.046;5.668;2023-07-09T07:38:17;101948.63;;;28.80;63.81
67099;BME280;54288;53.046;5.668;2023-07-09T07:40:46;101946.47;;;28.96;59.94
67099;BME280;54288;53.046;5.668;2023-07-09T07:43:12;101952.00;;;29.05;55.41
67099;BME280;54288;53.046;5.668;2023-07-09T07:45:44;101946.09;;;29.22;55.54
67099;BME280;54288;53.046;5.668;2023-07-09T07:48:10;101932.09;;;29.50;54.19
67099;BME280;54288;53.046;5.668;2023-07-09T07:50:36;101950.13;;;29.72;55.16
67099;BME280;54288;53.046;5.668;2023-07-09T07:53:03;101940.88;;;30.06;52.39
67099;BME280;54288;53.046;5.668;2023-07-09T07:55:29;101945.47;;;30.05;52.84
67099;BME280;54288;53.046;5.668;2023-07-09T07:57:55;101936.88;;;30.00;51.75
67099;BME280;54288;53.046;5.668;2023-07-09T08:00:22;101948.88;;;30.07;50.84
67099;BME280;54288;53.046;5.668;2023-07-09T08:02:48;101947.88;;;30.19;49.33
67099;BME280;54288;53.046;5.668;2023-07-09T08:05:14;101944.38;;;29.97;48.85
67099;BME280;54288;53.046;5.668;2023-07-09T08:07:40;101946.22;;;29.96;49.57
67099;BME280;54288;53.046;5.668;2023-07-09T08:10:06;101948.56;;;30.01;48.63
67099;BME280;54288;53.046;5.668;2023-07-09T08:12:32;101956.25;;;29.74;47.01
67099;BME280;54288;53.046;5.668;2023-07-09T08:14:58;101949.66;;;29.67;48.58
67099;BME280;54288;53.046;5.668;2023-07-09T08:17:23;101943.13;;;29.69;49.75
67099;BME280;54288;53.046;5.668;2023-07-09T08:19:52;101948.81;;;29.98;50.98
67099;BME280;54288;53.046;5.668;2023-07-09T08:22:18;101942.16;;;30.13;50.09
67099;BME280;54288;53.046;5.668;2023-07-09T08:24:48;101940.88;;;30.06;50.76
67099;BME280;54288;53.046;5.668;2023-07-09T08:27:14;101944.13;;;30.31;51.43
67099;BME280;54288;53.046;5.668;2023-07-09T08:29:40;101944.88;;;30.74;52.03
67099;BME280;54288;53.046;5.668;2023-07-09T08:32:08;101938.81;;;30.82;52.61
67099;BME280;54288;53.046;5.668;2023-07-09T08:34:34;101938.75;;;30.72;49.18
67099;BME280;54288;53.046;5.668;2023-07-09T08:37:01;101934.84;;;30.86;48.42
67099;BME280;54288;53.046;5.668;2023-07-09T08:39:27;101941.31;;;30.94;48.62
67099;BME280;54288;53.046;5.668;2023-07-09T08:42:04;101934.34;;;31.01;48.72
67099;BME280;54288;53.046;5.668;2023-07-09T08:47:19;101926.28;;;30.81;48.89
67099;BME280;54288;53.046;5.668;2023-07-09T08:50:00;101928.13;;;30.80;50.18
67099;BME280;54288;53.046;5.668;2023-07-09T08:52:40;101928.97;;;30.81;49.76
67099;BME280;54288;53.046;5.668;2023-07-09T08:55:13;101925.06;;;30.74;46.36
67099;BME280;54288;53.046;5.668;2023-07-09T08:57:43;101915.09;;;30.65;45.63
67099;BME280;54288;53.046;5.668;2023-07-09T09:00:19;101921.72;;;30.81;44.15
67099;BME280;54288;53.046;5.668;2023-07-09T09:02:56;101916.38;;;31.21;44.78
67099;BME280;54288;53.046;5.668;2023-07-09T09:05:24;101929.06;;;31.00;45.93
67099;BME280;54288;53.046;5.668;2023-07-09T09:08:12;101925.78;;;30.66;44.88
67099;BME280;54288;53.046;5.668;2023-07-09T09:10:57;101933.25;;;30.63;46.82
67099;BME280;54288;53.046;5.668;2023-07-09T09:13:29;101928.97;;;30.81;47.74
67099;BME280;54288;53.046;5.668;2023-07-09T09:16:00;101930.06;;;30.99;43.16
67099;BME280;54288;53.046;5.668;2023-07-09T09:18:42;101932.22;;;30.75;45.51
67099;BME280;54288;53.046;5.668;2023-07-09T09:21:24;101935.16;;;31.22;44.57
67099;BME280;54288;53.046;5.668;2023-07-09T09:23:57;101934.63;;;31.08;40.47
67099;BME280;54288;53.046;5.668;2023-07-09T09:26:31;101936.09;;;30.82;40.33
67099;BME280;54288;53.046;5.668;2023-07-09T09:28:57;101943.22;;;30.83;39.42
67099;BME280;54288;53.046;5.668;2023-07-09T09:31:27;101948.09;;;30.89;42.26
67099;BME280;54288;53.046;5.668;2023-07-09T09:33:53;101946.41;;;31.57;41.35
67099;BME280;54288;53.046;5.668;2023-07-09T09:36:20;101956.44;;;31.36;40.26
67099;BME280;54288;53.046;5.668;2023-07-09T09:38:47;101963.25;;;31.31;39.77
67099;BME280;54288;53.046;5.668;2023-07-09T09:41:24;101969.44;;;31.42;39.96
67099;BME280;54288;53.046;5.668;2023-07-09T09:43:53;101962.94;;;31.64;38.61
67099;BME280;54288;53.046;5.668;2023-07-09T09:46:25;101965.13;;;31.79;38.41
67099;BME280;54288;53.046;5.668;2023-07-09T09:48:59;101963.44;;;31.88;39.41
67099;BME280;54288;53.046;5.668;2023-07-09T09:51:27;101968.16;;;31.86;39.17
67099;BME280;54288;53.046;5.668;2023-07-09T09:53:58;101967.63;;;32.11;39.83
67099;BME280;54288;53.046;5.668;2023-07-09T09:56:30;101966.88;;;32.18;39.48
67099;BME280;54288;53.046;5.668;2023-07-09T09:58:57;101959.31;;;32.22;38.76
67099;BME280;54288;53.046;5.668;2023-07-09T10:01:32;101953.88;;;32.22;38.39
67099;BME280;54288;53.046;5.668;2023-07-09T10:04:03;101953.94;;;32.31;38.56
67099;BME280;54288;53.046;5.668;2023-07-09T10:06:36;101950.06;;;32.53;38.23
67099;BME280;54288;53.046;5.668;2023-07-09T10:17:47;101930.63;;;31.81;37.14
67099;BME280;54288;53.046;5.668;2023-07-09T10:20:18;101931.91;;;31.87;38.53
67099;BME280;54288;53.046;5.668;2023-07-09T10:25:35;101928.50;;;32.04;37.40
67099;BME280;54288;53.046;5.668;2023-07-09T10:31:02;101928.63;;;31.83;37.97
67099;BME280;54288;53.046;5.668;2023-07-09T10:34:06;101928.59;;;31.64;35.79
67099;BME280;54288;53.046;5.668;2023-07-09T10:39:22;101943.66;;;32.35;38.22
67099;BME280;54288;53.046;5.668;2023-07-09T10:41:51;101944.25;;;32.29;37.59
67099;BME280;54288;53.046;5.668;2023-07-09T10:44:35;101941.66;;;32.37;37.89
67099;BME280;54288;53.046;5.668;2023-07-09T10:49:55;101934.66;;;32.34;39.00
67099;BME280;54288;53.046;5.668;2023-07-09T10:52:29;101937.09;;;32.28;39.52
67099;BME280;54288;53.046;5.668;2023-07-09T10:55:31;101933.50;;;32.08;35.60
67099;BME280;54288;53.046;5.668;2023-07-09T10:57:59;101930.22;;;32.14;36.55
67099;BME280;54288;53.046;5.668;2023-07-09T11:00:38;101930.59;;;32.67;36.77
67099;BME280;54288;53.046;5.668;2023-07-09T11:03:19;101918.59;;;32.69;35.37
67099;BME280;54288;53.046;5.668;2023-07-09T11:05:46;101918.63;;;32.50;36.44
67099;BME280;54288;53.046;5.668;2023-07-09T11:08:18;101919.59;;;32.68;37.26
67099;BME280;54288;53.046;5.668;2023-07-09T11:11:05;101910.25;;;32.99;36.40
67099;BME280;54288;53.046;5.668;2023-07-09T11:13:43;101914.16;;;32.78;37.28
67099;BME280;54288;53.046;5.668;2023-07-09T11:16:23;101915.06;;;32.59;37.89
67099;BME280;54288;53.046;5.668;2023-07-09T11:18:57;101913.13;;;33.15;37.98
67099;BME280;54288;53.046;5.668;2023-07-09T11:21:24;101914.44;;;33.48;37.65
67099;BME280;54288;53.046;5.668;2023-07-09T11:23:53;101914.03;;;33.43;38.14
67099;BME280;54288;53.046;5.668;2023-07-09T11:26:29;101915.13;;;33.50;35.88
67099;BME280;54288;53.046;5.668;2023-07-09T11:36:33;101900.53;;;33.33;35.25
67099;BME280;54288;53.046;5.668;2023-07-09T11:39:00;101909.78;;;33.40;33.19
67099;BME280;54288;53.046;5.668;2023-07-09T11:41:39;101909.28;;;33.18;33.27
67099;BME280;54288;53.046;5.668;2023-07-09T11:46:51;101919.53;;;32.97;35.32
67099;BME280;54288;53.046;5.668;2023-07-09T11:49:23;101924.38;;;33.03;34.37
67099;BME280;54288;53.046;5.668;2023-07-09T11:51:55;101927.78;;;33.05;34.88
67099;BME280;54288;53.046;5.668;2023-07-09T11:54:25;101922.00;;;33.17;35.70
67099;BME280;54288;53.046;5.668;2023-07-09T11:56:59;101912.97;;;32.99;35.27
67099;BME280;54288;53.046;5.668;2023-07-09T11:59:27;101906.25;;;33.30;34.87
67099;BME280;54288;53.046;5.668;2023-07-09T12:01:53;101881.56;;;32.87;35.05
67099;BME280;54288;53.046;5.668;2023-07-09T12:04:23;101887.66;;;32.99;35.71
67099;BME280;54288;53.046;5.668;2023-07-09T12:06:57;101888.31;;;32.74;36.49
67099;BME280;54288;53.046;5.668;2023-07-09T12:09:32;101892.19;;;32.62;37.58
67099;BME280;54288;53.046;5.668;2023-07-09T12:11:58;101890.78;;;32.58;36.40
67099;BME280;54288;53.046;5.668;2023-07-09T12:14:24;101885.13;;;32.13;37.09
67099;BME280;54288;53.046;5.668;2023-07-09T12:16:51;101892.69;;;32.00;37.12
67099;BME280;54288;53.046;5.668;2023-07-09T12:19:24;101901.41;;;31.94;37.14
67099;BME280;54288;53.046;5.668;2023-07-09T12:21:55;101902.25;;;31.95;37.30
67099;BME280;54288;53.046;5.668;2023-07-09T12:24:28;101902.66;;;32.19;37.09
67099;BME280;54288;53.046;5.668;2023-07-09T12:26:56;101899.09;;;32.47;37.43
67099;BME280;54288;53.046;5.668;2023-07-09T12:29:26;101888.31;;;32.74;36.20
67099;BME280;54288;53.046;5.668;2023-07-09T12:31:52;101901.66;;;32.48;35.79
67099;BME280;54288;53.046;5.668;2023-07-09T12:34:18;101894.91;;;33.08;36.00
67099;BME280;54288;53.046;5.668;2023-07-09T12:36:50;101895.28;;;32.86;36.46
67099;BME280;54288;53.046;5.668;2023-07-09T12:39:23;101908.53;;;32.33;37.00
67099;BME280;54288;53.046;5.668;2023-07-09T12:41:49;101900.84;;;32.19;37.84
67099;BME280;54288;53.046;5.668;2023-07-09T12:44:21;101899.69;;;32.03;38.31
67099;BME280;54288;53.046;5.668;2023-07-09T12:46:49;101899.97;;;31.81;38.43
67099;BME280;54288;53.046;5.668;2023-07-09T12:49:28;101882.00;;;31.80;39.12
67099;BME280;54288;53.046;5.668;2023-07-09T12:51:59;101883.13;;;31.87;40.97
67099;BME280;54288;53.046;5.668;2023-07-09T12:54:28;101891.94;;;31.60;39.98
67099;BME280;54288;53.046;5.668;2023-07-09T12:56:58;101889.91;;;31.53;40.82
67099;BME280;54288;53.046;5.668;2023-07-09T12:59:27;101897.81;;;31.75;40.24
67099;BME280;54288;53.046;5.668;2023-07-09T13:02:04;101895.06;;;31.65;40.67
67099;BME280;54288;53.046;5.668;2023-07-09T13:04:36;101892.03;;;31.40;41.35
67099;BME280;54288;53.046;5.668;2023-07-09T13:07:02;101904.78;;;31.68;41.47
67099;BME280;54288;53.046;5.668;2023-07-09T13:09:28;101908.25;;;31.89;43.13
67099;BME280;54288;53.046;5.668;2023-07-09T13:11:55;101914.09;;;32.03;43.34
67099;BME280;54288;53.046;5.668;2023-07-09T13:14:25;101899.81;;;32.20;46.65
67099;BME280;54288;53.046;5.668;2023-07-09T13:16:52;101919.81;;;32.19;46.09
67099;BME280;54288;53.046;5.668;2023-07-09T13:19:18;101934.78;;;32.33;45.51
67099;BME280;54288;53.046;5.668;2023-07-09T13:21:45;101922.22;;;32.22;45.16
67099;BME280;54288;53.046;5.668;2023-07-09T13:24:23;101906.81;;;32.13;43.55
67099;BME280;54288;53.046;5.668;2023-07-09T13:26:50;101913.97;;;32.14;41.91
67099;BME280;54288;53.046;5.668;2023-07-09T13:29:18;101900.78;;;31.72;43.30
67099;BME280;54288;53.046;5.668;2023-07-09T13:31:45;101898.91;;;31.44;44.00
67099;BME280;54288;53.046;5.668;2023-07-09T13:34:21;101892.16;;;31.29;46.84